createdAt,value
2018-03-11T00:02:20.141Z,-73
2018-03-11T00:04:46.594Z,-74
2018-03-11T00:07:13.101Z,-73
2018-03-11T00:09:40.294Z,-73
2018-03-11T00:12:06.751Z,-74
2018-03-11T00:14:33.274Z,-75
2018-03-11T00:16:59.740Z,-75
2018-03-11T00:19:27.059Z,-73
2018-03-11T00:21:53.526Z,-74
2018-03-11T00:24:20.732Z,-74
2018-03-11T00:26:47.320Z,-73
2018-03-11T00:29:13.824Z,-73
2018-03-11T00:31:40.242Z,-73
2018-03-11T00:34:07.521Z,-74
2018-03-11T00:36:34.026Z,-73
2018-03-11T00:39:00.476Z,-73
2018-03-11T00:41:26.955Z,-73
2018-03-11T00:43:53.438Z,-75
2018-03-11T00:46:19.865Z,-73
2018-03-11T00:48:46.300Z,-73
2018-03-11T00:51:12.740Z,-73
2018-03-11T00:53:39.977Z,-74
2018-03-11T00:56:06.464Z,-75
2018-03-11T00:58:32.980Z,-74
2018-03-11T01:01:00.292Z,-73
2018-03-11T01:03:26.750Z,-74
2018-03-11T01:05:53.219Z,-73
2018-03-11T01:08:19.794Z,-74
2018-03-11T01:10:47.023Z,-73
2018-03-11T01:13:14.379Z,-73
2018-03-11T01:15:40.855Z,-73
2018-03-11T01:18:07.315Z,-73
2018-03-11T01:20:33.746Z,-73
2018-03-11T01:23:00.293Z,-74
2018-03-11T01:25:26.991Z,-73
2018-03-11T01:27:54.050Z,-74
2018-03-11T01:30:21.918Z,-73
2018-03-11T01:32:49.711Z,-73
2018-03-11T01:35:17.696Z,-74
2018-03-11T01:37:44.498Z,-75
2018-03-11T01:40:12.395Z,-73
2018-03-11T01:42:38.962Z,-73
2018-03-11T01:45:06.277Z,-73
2018-03-11T01:47:32.705Z,-73
2018-03-11T01:49:59.268Z,-73
2018-03-11T01:52:25.694Z,-73
2018-03-11T01:54:52.168Z,-73
2018-03-11T01:57:18.600Z,-73
2018-03-11T01:59:45.053Z,-74
2018-03-11T02:02:11.491Z,-73
2018-03-11T02:04:37.946Z,-73
2018-03-11T02:07:04.567Z,-74
2018-03-11T02:09:31.761Z,-74
2018-03-11T02:11:58.200Z,-73
2018-03-11T02:14:24.644Z,-73
2018-03-11T02:16:51.067Z,-72
2018-03-11T02:19:18.262Z,-73
2018-03-11T02:21:44.699Z,-72
2018-03-11T02:24:11.126Z,-73
2018-03-11T02:26:38.323Z,-73
2018-03-11T02:29:04.751Z,-72
2018-03-11T02:31:32.039Z,-72
2018-03-11T02:33:58.480Z,-74
2018-03-11T02:36:24.934Z,-73
2018-03-11T02:38:51.359Z,-73
2018-03-11T02:41:18.584Z,-73
2018-03-11T02:43:45.011Z,-73
2018-03-11T02:46:11.467Z,-73
2018-03-11T02:48:37.917Z,-73
2018-03-11T02:51:05.143Z,-74
2018-03-11T02:53:31.584Z,-74
2018-03-11T02:55:58.016Z,-73
2018-03-11T02:58:25.225Z,-73
2018-03-11T03:00:51.655Z,-73
2018-03-11T03:03:18.079Z,-75
2018-03-11T03:05:44.522Z,-74
2018-03-11T03:08:10.997Z,-73
2018-03-11T03:10:37.752Z,-73
2018-03-11T03:13:04.457Z,-73
2018-03-11T03:15:30.976Z,-73
2018-03-11T03:17:57.416Z,-73
2018-03-11T03:20:23.841Z,-73
2018-03-11T03:22:50.297Z,-74
2018-03-11T03:25:16.739Z,-73
2018-03-11T03:27:43.184Z,-73
2018-03-11T03:30:09.611Z,-74
2018-03-11T03:32:36.066Z,-73
2018-03-11T03:35:02.625Z,-73
2018-03-11T03:37:29.089Z,-74
2018-03-11T03:39:55.536Z,-73
2018-03-11T03:42:21.975Z,-74
2018-03-11T03:44:48.415Z,-74
2018-03-11T03:47:14.847Z,-73
2018-03-11T03:49:41.271Z,-73
2018-03-11T03:52:08.484Z,-73
2018-03-11T03:54:34.925Z,-73
2018-03-11T03:57:01.614Z,-75
2018-03-11T03:59:28.084Z,-72
2018-03-11T04:01:55.289Z,-74
2018-03-11T04:04:21.722Z,-74
2018-03-11T04:06:48.145Z,-73
2018-03-11T04:09:14.578Z,-73
2018-03-11T04:11:41.789Z,-73
2018-03-11T04:14:08.257Z,-74
2018-03-11T04:16:34.693Z,-73
2018-03-11T04:19:01.165Z,-74
2018-03-11T04:21:27.593Z,-73
2018-03-11T04:23:54.113Z,-75
2018-03-11T04:26:20.556Z,-73
2018-03-11T04:28:47.015Z,-73
2018-03-11T04:31:13.448Z,-73
2018-03-11T04:33:39.888Z,-74
2018-03-11T04:36:06.324Z,-75
2018-03-11T04:38:33.516Z,-73
2018-03-11T04:40:59.943Z,-73
2018-03-11T04:43:26.366Z,-74
2018-03-11T04:45:53.569Z,-74
2018-03-11T04:48:19.995Z,-75
2018-03-11T04:50:47.185Z,-75
2018-03-11T04:53:13.635Z,-75
2018-03-11T04:55:40.084Z,-74
2018-03-11T04:58:06.530Z,-75
2018-03-11T05:00:32.974Z,-73
2018-03-11T05:02:59.407Z,-73
2018-03-11T05:05:25.882Z,-73
2018-03-11T05:07:52.305Z,-74
2018-03-11T05:10:18.777Z,-73
2018-03-11T05:12:45.206Z,-71
2018-03-11T05:15:11.684Z,-75
2018-03-11T05:17:38.104Z,-73
2018-03-11T05:20:05.025Z,-73
2018-03-11T05:22:32.232Z,-75
2018-03-11T05:24:58.663Z,-74
2018-03-11T05:27:25.093Z,-72
2018-03-11T05:29:51.522Z,-75
2018-03-11T05:32:18.732Z,-72
2018-03-11T05:34:45.163Z,-73
2018-03-11T05:37:11.977Z,-72
2018-03-11T05:39:38.420Z,-73
2018-03-11T05:42:04.906Z,-74
2018-03-11T05:44:31.342Z,-73
2018-03-11T05:46:57.791Z,-73
2018-03-11T05:49:24.213Z,-73
2018-03-11T05:51:51.433Z,-74
2018-03-11T05:54:17.880Z,-73
2018-03-11T05:56:44.349Z,-73
2018-03-11T05:59:10.863Z,-73
2018-03-11T06:01:37.314Z,-73
2018-03-11T06:04:03.759Z,-73
2018-03-11T06:06:30.205Z,-75
2018-03-11T06:08:56.634Z,-73
2018-03-11T06:11:23.835Z,-73
2018-03-11T06:13:51.031Z,-73
2018-03-11T06:16:17.466Z,-73
2018-03-11T06:18:43.897Z,-73
2018-03-11T06:21:10.331Z,-73
2018-03-11T06:23:36.761Z,-73
2018-03-11T06:26:03.186Z,-73
2018-03-11T06:28:29.637Z,-73
2018-03-11T06:30:56.081Z,-73
2018-03-11T06:33:22.523Z,-75
2018-03-11T06:35:49.707Z,-75
2018-03-11T06:38:16.161Z,-74
2018-03-11T06:40:42.599Z,-73
2018-03-11T06:43:09.059Z,-74
2018-03-11T06:45:35.500Z,-73
2018-03-11T06:48:01.978Z,-73
2018-03-11T06:50:28.461Z,-73
2018-03-11T06:52:55.690Z,-74
2018-03-11T06:55:22.133Z,-74
2018-03-11T06:57:48.576Z,-73
2018-03-11T07:00:15.007Z,-74
2018-03-11T07:02:41.451Z,-75
2018-03-11T07:05:07.960Z,-74
2018-03-11T07:07:34.404Z,-74
2018-03-11T07:10:00.830Z,-74
2018-03-11T07:12:28.040Z,-72
2018-03-11T07:14:54.485Z,-73
2018-03-11T07:17:20.910Z,-72
2018-03-11T07:19:47.359Z,-73
2018-03-11T07:22:13.826Z,-76
2018-03-11T07:24:40.234Z,-73
2018-03-11T07:27:07.439Z,-73
2018-03-11T07:29:33.909Z,-74
2018-03-11T07:32:00.357Z,-73
2018-03-11T07:34:26.829Z,-74
2018-03-11T07:36:54.018Z,-74
2018-03-11T07:39:20.473Z,-72
2018-03-11T07:41:46.895Z,-72
2018-03-11T07:44:14.089Z,-72
2018-03-11T07:46:40.534Z,-72
2018-03-11T07:49:06.983Z,-74
2018-03-11T07:51:33.423Z,-73
2018-03-11T07:53:59.861Z,-72
2018-03-11T07:56:26.299Z,-75
2018-03-11T07:58:52.737Z,-74
2018-03-11T08:01:19.930Z,-73
2018-03-11T08:03:46.365Z,-73
2018-03-11T08:06:12.810Z,-74
2018-03-11T08:08:39.248Z,-73
2018-03-11T08:11:05.684Z,-75
2018-03-11T08:13:32.885Z,-75
2018-03-11T08:15:59.349Z,-73
2018-03-11T08:18:25.796Z,-73
2018-03-11T08:20:52.255Z,-71
2018-03-11T08:23:18.697Z,-72
2018-03-11T08:25:45.130Z,-74
2018-03-11T08:28:11.562Z,-75
2018-03-11T08:30:38.003Z,-75
2018-03-11T08:33:04.547Z,-73
2018-03-11T08:35:30.976Z,-77
2018-03-11T08:37:57.415Z,-73
2018-03-11T08:40:23.850Z,-73
2018-03-11T08:42:51.053Z,-73
2018-03-11T08:45:17.477Z,-74
2018-03-11T08:47:43.944Z,-73
2018-03-11T08:50:10.380Z,-74
2018-03-11T08:52:36.824Z,-73
2018-03-11T08:55:03.386Z,-74
2018-03-11T08:57:29.829Z,-73
2018-03-11T08:59:56.299Z,-73
2018-03-11T09:02:22.734Z,-73
2018-03-11T09:04:49.179Z,-74
2018-03-11T09:07:15.618Z,-73
2018-03-11T09:09:42.065Z,-72
2018-03-11T09:12:08.512Z,-72
2018-03-11T09:14:34.938Z,-72
2018-03-11T09:17:01.375Z,-73
2018-03-11T09:19:27.804Z,-74
2018-03-11T09:21:55.011Z,-72
2018-03-11T09:24:21.452Z,-72
2018-03-11T09:26:47.879Z,-72
2018-03-11T09:29:14.336Z,-72
2018-03-11T09:31:40.772Z,-72
2018-03-11T09:34:07.205Z,-72
2018-03-11T09:36:33.652Z,-72
2018-03-11T09:39:00.097Z,-73
2018-03-11T09:41:26.565Z,-72
2018-03-11T09:43:52.990Z,-74
2018-03-11T09:46:20.227Z,-72
2018-03-11T09:48:46.664Z,-75
2018-03-11T09:51:13.090Z,-74
2018-03-11T09:53:39.541Z,-71
2018-03-11T09:56:06.069Z,-73
2018-03-11T09:58:32.556Z,-73
2018-03-11T10:00:58.987Z,-73
2018-03-11T10:03:26.228Z,-73
2018-03-11T10:05:52.650Z,-73
2018-03-11T10:08:19.838Z,-71
2018-03-11T10:10:46.278Z,-73
2018-03-11T10:13:12.706Z,-73
2018-03-11T10:15:39.907Z,-72
2018-03-11T10:18:06.350Z,-71
2018-03-11T10:20:32.772Z,-73
2018-03-11T10:22:59.971Z,-73
2018-03-11T10:25:26.399Z,-73
2018-03-11T10:27:52.826Z,-73
2018-03-11T10:30:20.040Z,-75
2018-03-11T10:32:46.465Z,-73
2018-03-11T10:35:12.913Z,-73
2018-03-11T10:37:39.358Z,-74
2018-03-11T10:40:05.810Z,-72
2018-03-11T10:42:32.250Z,-75
2018-03-11T10:44:58.711Z,-73
2018-03-11T10:47:25.143Z,-72
2018-03-11T10:49:51.616Z,-72
2018-03-11T10:52:18.032Z,-73
2018-03-11T10:54:44.470Z,-73
2018-03-11T10:57:11.681Z,-73
2018-03-11T10:59:38.106Z,-75
2018-03-11T11:02:04.554Z,-75
2018-03-11T11:04:30.984Z,-73
2018-03-11T11:06:57.428Z,-74
2018-03-11T11:09:23.859Z,-74
2018-03-11T11:11:51.081Z,-73
2018-03-11T11:14:17.502Z,-73
2018-03-11T11:16:43.934Z,-73
2018-03-11T11:19:10.363Z,-73
2018-03-11T11:21:37.562Z,-75
2018-03-11T11:24:04.131Z,-73
2018-03-11T11:26:30.720Z,-74
2018-03-11T11:28:57.145Z,-74
2018-03-11T11:31:23.594Z,-75
2018-03-11T11:33:50.106Z,-75
2018-03-11T11:36:16.544Z,-73
2018-03-11T11:38:42.974Z,-74
2018-03-11T11:41:10.179Z,-74
2018-03-11T11:43:36.628Z,-75
2018-03-11T11:46:03.162Z,-74
2018-03-11T11:48:29.633Z,-74
2018-03-11T11:50:56.058Z,-73
2018-03-11T11:53:22.585Z,-75
2018-03-11T11:55:49.015Z,-74
2018-03-11T11:58:16.225Z,-73
2018-03-11T12:00:42.701Z,-74
2018-03-11T12:03:09.116Z,-74
2018-03-11T12:05:35.538Z,-74
2018-03-11T12:08:02.007Z,-73
2018-03-11T12:10:28.456Z,-73
2018-03-11T12:12:54.899Z,-73
2018-03-11T12:15:21.341Z,-73
2018-03-11T12:17:47.790Z,-74
2018-03-11T12:20:14.330Z,-74
2018-03-11T12:22:40.803Z,-74
2018-03-11T12:25:07.226Z,-73
2018-03-11T12:27:33.654Z,-74
2018-03-11T12:30:00.086Z,-75
2018-03-11T12:54:43.239Z,-82
2018-03-11T13:02:28.382Z,-80
2018-03-11T13:04:56.001Z,-79
2018-03-11T13:10:04.797Z,-81
2018-03-11T14:59:39.487Z,-66
2018-03-11T15:02:05.961Z,-65
2018-03-11T15:04:32.401Z,-64
2018-03-11T15:06:58.870Z,-63
2018-03-11T15:09:25.312Z,-66
2018-03-11T15:11:51.761Z,-64
2018-03-11T15:14:18.200Z,-65
2018-03-11T15:16:44.639Z,-64
2018-03-11T15:19:11.078Z,-66
2018-03-11T15:21:37.502Z,-66
2018-03-11T15:24:04.350Z,-65
2018-03-11T15:26:30.779Z,-64
2018-03-11T15:28:57.990Z,-65
2018-03-11T15:31:24.422Z,-63
2018-03-11T15:33:50.880Z,-66
2018-03-11T15:36:17.482Z,-65
2018-03-11T15:38:44.740Z,-65
2018-03-11T15:41:12.426Z,-66
2018-03-11T15:43:39.622Z,-65
2018-03-11T15:46:06.054Z,-65
2018-03-11T15:48:32.550Z,-64
2018-03-11T15:50:59.061Z,-64
2018-03-11T15:53:25.538Z,-64
2018-03-11T15:55:51.965Z,-64
2018-03-11T15:58:18.404Z,-64
2018-03-11T16:00:44.850Z,-66
2018-03-11T16:03:11.296Z,-65
2018-03-11T16:05:37.734Z,-65
2018-03-11T16:08:04.707Z,-64
2018-03-11T16:10:31.133Z,-65
2018-03-11T16:12:57.557Z,-66
2018-03-11T16:15:24.029Z,-66
2018-03-11T16:17:50.467Z,-64
2018-03-11T16:20:16.936Z,-65
2018-03-11T16:22:43.362Z,-65
2018-03-11T16:25:09.809Z,-64
2018-03-11T16:27:36.261Z,-66
2018-03-11T16:30:02.787Z,-65
2018-03-11T16:32:29.232Z,-65
2018-03-11T16:34:55.703Z,-65
2018-03-11T16:37:22.233Z,-66
2018-03-11T16:39:48.666Z,-64
2018-03-11T16:42:15.116Z,-65
2018-03-11T16:44:41.569Z,-66
2018-03-11T16:47:08.000Z,-64
2018-03-11T16:49:34.444Z,-66
2018-03-11T16:52:00.878Z,-64
2018-03-11T16:54:28.088Z,-64
2018-03-11T16:56:54.541Z,-65
2018-03-11T16:59:21.065Z,-65
2018-03-11T17:01:47.498Z,-64
2018-03-11T17:04:13.959Z,-65
2018-03-11T17:06:40.382Z,-65
2018-03-11T17:09:07.582Z,-66
2018-03-11T17:11:34.054Z,-64
2018-03-11T17:14:00.497Z,-66
2018-03-11T17:16:26.952Z,-65
2018-03-11T17:18:53.391Z,-64
2018-03-11T17:21:19.837Z,-63
2018-03-11T17:23:46.843Z,-66
2018-03-11T17:26:13.283Z,-65
2018-03-11T17:28:40.582Z,-66
2018-03-11T17:31:07.132Z,-66
2018-03-11T17:33:33.695Z,-64
2018-03-11T17:36:00.274Z,-64
2018-03-11T17:38:26.751Z,-64
2018-03-11T17:40:53.232Z,-66
2018-03-11T17:43:20.376Z,-66
2018-03-11T17:45:46.831Z,-66
2018-03-11T17:48:13.721Z,-65
2018-03-11T17:50:40.919Z,-63
2018-03-11T17:53:07.927Z,-63
2018-03-11T17:55:34.732Z,-64
2018-03-11T17:58:01.336Z,-65
2018-03-11T18:00:27.917Z,-66
2018-03-11T18:02:55.403Z,-66
2018-03-11T18:05:21.885Z,-63
2018-03-11T18:07:48.341Z,-65
2018-03-11T18:10:14.784Z,-65
2018-03-11T18:12:41.244Z,-65
2018-03-11T18:15:07.937Z,-64
2018-03-11T18:17:34.694Z,-64
2018-03-11T18:20:01.314Z,-65
2018-03-11T18:22:28.537Z,-65
2018-03-11T18:24:54.975Z,-64
2018-03-11T18:27:21.660Z,-65
2018-03-11T18:29:48.900Z,-66
2018-03-11T18:32:15.642Z,-65
2018-03-11T18:34:42.993Z,-66
2018-03-11T18:37:09.730Z,-65
2018-03-11T18:39:36.232Z,-65
2018-03-11T18:42:02.972Z,-66
2018-03-11T18:44:29.811Z,-63
2018-03-11T18:46:56.457Z,-66
2018-03-11T18:49:23.467Z,-66
2018-03-11T18:51:50.566Z,-65
2018-03-11T18:54:17.335Z,-64
2018-03-11T18:56:44.500Z,-66
2018-03-11T18:59:11.252Z,-65
2018-03-11T19:01:38.316Z,-64
2018-03-11T19:04:04.929Z,-66
2018-03-11T19:06:31.878Z,-64
2018-03-11T19:09:00.014Z,-65
2018-03-11T19:11:28.180Z,-65
2018-03-11T19:13:56.289Z,-65
2018-03-11T19:16:23.657Z,-66
2018-03-11T19:18:50.919Z,-64
2018-03-11T19:21:17.880Z,-65
2018-03-11T19:23:44.610Z,-66
2018-03-11T19:26:11.901Z,-64
2018-03-11T19:28:39.445Z,-63
2018-03-11T19:31:06.944Z,-64
2018-03-11T19:33:34.213Z,-65
2018-03-11T19:36:01.452Z,-63
2018-03-11T19:38:28.318Z,-64
2018-03-11T19:40:55.294Z,-65
2018-03-11T19:43:22.090Z,-65
2018-03-11T19:45:49.618Z,-65
2018-03-11T19:48:17.073Z,-63
2018-03-11T19:50:45.150Z,-64
2018-03-11T19:53:11.888Z,-64
2018-03-11T19:55:39.986Z,-64
2018-03-11T19:58:07.324Z,-65
2018-03-11T20:00:34.678Z,-63
2018-03-11T20:03:01.497Z,-66
2018-03-11T20:05:28.356Z,-64
2018-03-11T20:07:55.378Z,-65
2018-03-11T20:10:22.680Z,-63
2018-03-11T20:12:50.048Z,-65
2018-03-11T20:15:17.495Z,-66
2018-03-11T20:17:44.875Z,-63
2018-03-11T20:20:12.131Z,-64
2018-03-11T20:22:39.622Z,-64
2018-03-11T20:25:06.960Z,-64
2018-03-11T20:27:34.349Z,-66
2018-03-11T20:30:01.756Z,-65
2018-03-11T20:32:28.889Z,-64
2018-03-11T20:34:56.563Z,-64
2018-03-11T20:37:23.928Z,-64
2018-03-11T20:39:51.093Z,-66
2018-03-11T20:42:18.407Z,-64
2018-03-11T20:44:45.734Z,-66
2018-03-11T20:47:13.090Z,-64
2018-03-11T20:49:41.485Z,-64
2018-03-11T20:52:08.819Z,-65
2018-03-11T20:54:36.182Z,-65
2018-03-11T20:57:03.509Z,-66
2018-03-11T20:59:30.750Z,-65
2018-03-11T21:01:58.120Z,-64
2018-03-11T21:04:25.385Z,-65
2018-03-11T21:06:52.958Z,-63
2018-03-11T21:09:20.289Z,-65
2018-03-11T21:11:47.584Z,-63
2018-03-11T21:14:14.689Z,-64
2018-03-11T21:16:41.605Z,-65
2018-03-11T21:19:08.378Z,-66
2018-03-11T21:21:35.213Z,-66
2018-03-11T21:24:01.665Z,-65
2018-03-11T21:26:28.615Z,-66
2018-03-11T21:28:55.203Z,-64
2018-03-11T21:31:21.823Z,-64
2018-03-11T21:33:48.529Z,-63
2018-03-11T21:36:15.746Z,-65
2018-03-11T21:38:42.192Z,-65
2018-03-11T21:41:08.673Z,-66
2018-03-11T21:43:35.192Z,-65
2018-03-11T21:46:01.647Z,-64
2018-03-11T21:48:28.121Z,-63
2018-03-11T21:50:54.545Z,-63
2018-03-11T21:53:21.013Z,-65
2018-03-11T21:55:47.456Z,-66
2018-03-11T21:58:13.893Z,-66
2018-03-11T22:00:40.327Z,-66
2018-03-11T22:03:06.763Z,-64
2018-03-11T22:05:33.207Z,-66
2018-03-11T22:07:59.697Z,-64
2018-03-11T22:10:26.127Z,-66
2018-03-11T22:12:52.558Z,-65
2018-03-11T22:15:19.004Z,-64
2018-03-11T22:17:45.451Z,-67
2018-03-11T22:20:11.895Z,-65
2018-03-11T22:22:38.336Z,-66
2018-03-11T22:25:05.213Z,-63
2018-03-11T22:27:31.638Z,-65
2018-03-11T22:29:58.087Z,-66
2018-03-11T22:32:24.604Z,-64
2018-03-11T22:34:51.055Z,-66
2018-03-11T22:37:17.514Z,-66
2018-03-11T22:39:43.952Z,-65
2018-03-11T22:42:10.378Z,-65
2018-03-11T22:44:37.569Z,-66
2018-03-11T22:47:04.253Z,-65
2018-03-11T22:49:30.692Z,-66
2018-03-11T22:51:57.117Z,-63
2018-03-11T22:54:23.614Z,-65
2018-03-11T22:56:50.053Z,-64
2018-03-11T22:59:16.469Z,-66
2018-03-11T23:01:42.991Z,-66
2018-03-11T23:04:09.470Z,-65
2018-03-11T23:06:35.897Z,-66
2018-03-11T23:09:02.353Z,-64
2018-03-11T23:11:28.772Z,-64
2018-03-11T23:13:55.193Z,-64
2018-03-11T23:16:22.400Z,-63
2018-03-11T23:18:48.825Z,-64
2018-03-11T23:21:16.023Z,-65
2018-03-11T23:23:42.454Z,-64
2018-03-11T23:26:08.924Z,-64
2018-03-11T23:28:35.364Z,-65
2018-03-11T23:31:01.789Z,-66
2018-03-11T23:33:28.340Z,-64
2018-03-11T23:35:54.859Z,-65
2018-03-11T23:38:21.322Z,-66
2018-03-11T23:40:47.754Z,-65
2018-03-11T23:43:14.960Z,-65
2018-03-11T23:45:41.390Z,-64
2018-03-11T23:48:07.809Z,-65
2018-03-11T23:50:34.245Z,-66
2018-03-11T23:53:01.460Z,-65
2018-03-11T23:55:27.910Z,-64
2018-03-11T23:57:54.358Z,-65
